sensor_id;sensor_type;location;lat;lon;timestamp;pressure;altitude;pressure_sealevel;temperature;humidity
81155;BME280;70631;50.436;7.826;2023-06-22T00:01:55;99232.50;;;22.85;67.55
81155;BME280;70631;50.436;7.826;2023-06-22T00:04:20;99218.94;;;22.85;67.87
81155;BME280;70631;50.436;7.826;2023-06-22T00:06:45;99223.75;;;22.83;67.77
81155;BME280;70631;50.436;7.826;2023-06-22T00:09:10;99221.44;;;22.80;67.61
81155;BME280;70631;50.436;7.826;2023-06-22T00:11:36;99222.91;;;22.76;67.89
81155;BME280;70631;50.436;7.826;2023-06-22T00:14:02;99234.44;;;22.78;68.30
81155;BME280;70631;50.436;7.826;2023-06-22T00:16:28;99229.41;;;22.75;68.45
81155;BME280;70631;50.436;7.826;2023-06-22T00:18:53;99230.25;;;22.75;68.82
81155;BME280;70631;50.436;7.826;2023-06-22T00:21:18;99230.66;;;22.79;68.74
81155;BME280;70631;50.436;7.826;2023-06-22T00:23:46;99232.31;;;22.80;68.24
81155;BME280;70631;50.436;7.826;2023-06-22T00:26:11;99234.84;;;22.75;68.69
81155;BME280;70631;50.436;7.826;2023-06-22T00:28:36;99239.66;;;22.73;69.13
81155;BME280;70631;50.436;7.826;2023-06-22T00:31:02;99243.44;;;22.72;69.18
81155;BME280;70631;50.436;7.826;2023-06-22T00:33:27;99242.44;;;22.66;69.34
81155;BME280;70631;50.436;7.826;2023-06-22T00:35:53;99253.09;;;22.68;69.55
81155;BME280;70631;50.436;7.826;2023-06-22T00:38:19;99260.19;;;22.69;69.65
81155;BME280;70631;50.436;7.826;2023-06-22T00:40:44;99259.13;;;22.70;69.75
81155;BME280;70631;50.436;7.826;2023-06-22T00:43:09;99268.94;;;22.71;69.73
81155;BME280;70631;50.436;7.826;2023-06-22T00:45:35;99257.25;;;22.70;69.63
81155;BME280;70631;50.436;7.826;2023-06-22T00:48:01;99256.41;;;22.70;69.53
81155;BME280;70631;50.436;7.826;2023-06-22T00:50:28;99257.69;;;22.67;69.39
81155;BME280;70631;50.436;7.826;2023-06-22T00:53:00;99261.06;;;22.63;69.65
81155;BME280;70631;50.436;7.826;2023-06-22T00:55:26;99262.56;;;22.59;69.90
81155;BME280;70631;50.436;7.826;2023-06-22T00:57:53;99263.19;;;22.61;69.81
81155;BME280;70631;50.436;7.826;2023-06-22T01:00:22;99271.53;;;22.59;69.92
81155;BME280;70631;50.436;7.826;2023-06-22T01:02:50;99269.88;;;22.58;70.33
81155;BME280;70631;50.436;7.826;2023-06-22T01:05:21;99266.75;;;22.54;70.00
81155;BME280;70631;50.436;7.826;2023-06-22T01:10:43;99267.78;;;22.53;69.85
81155;BME280;70631;50.436;7.826;2023-06-22T01:13:29;99273.28;;;22.47;69.64
81155;BME280;70631;50.436;7.826;2023-06-22T01:16:12;99272.00;;;22.49;69.49
81155;BME280;70631;50.436;7.826;2023-06-22T01:18:42;99273.22;;;22.53;69.90
81155;BME280;70631;50.436;7.826;2023-06-22T01:21:10;99273.22;;;22.53;70.29
81155;BME280;70631;50.436;7.826;2023-06-22T01:23:58;99270.78;;;22.45;70.75
81155;BME280;70631;50.436;7.826;2023-06-22T01:26:53;99273.72;;;22.44;70.38
81155;BME280;70631;50.436;7.826;2023-06-22T01:29:20;99264.09;;;22.48;70.83
81155;BME280;70631;50.436;7.826;2023-06-22T01:31:47;99261.38;;;22.48;70.32
81155;BME280;70631;50.436;7.826;2023-06-22T01:34:13;99249.06;;;22.45;71.17
81155;BME280;70631;50.436;7.826;2023-06-22T01:36:41;99256.59;;;22.43;70.99
81155;BME280;70631;50.436;7.826;2023-06-22T01:39:08;99252.66;;;22.39;70.39
81155;BME280;70631;50.436;7.826;2023-06-22T01:41:36;99248.09;;;22.33;70.24
81155;BME280;70631;50.436;7.826;2023-06-22T01:44:05;99246.84;;;22.29;70.74
81155;BME280;70631;50.436;7.826;2023-06-22T01:46:33;99236.81;;;22.30;70.39
81155;BME280;70631;50.436;7.826;2023-06-22T01:48:59;99251.22;;;22.30;70.38
81155;BME280;70631;50.436;7.826;2023-06-22T01:51:24;99251.22;;;22.30;70.59
81155;BME280;70631;50.436;7.826;2023-06-22T01:53:50;99246.47;;;22.25;70.32
81155;BME280;70631;50.436;7.826;2023-06-22T01:56:17;99241.31;;;22.11;71.03
81155;BME280;70631;50.436;7.826;2023-06-22T01:58:49;99230.91;;;22.01;71.49
81155;BME280;70631;50.436;7.826;2023-06-22T02:01:20;99229.22;;;22.07;71.10
81155;BME280;70631;50.436;7.826;2023-06-22T02:04:00;99209.63;;;22.05;71.11
81155;BME280;70631;50.436;7.826;2023-06-22T02:06:32;99211.06;;;22.07;71.08
81155;BME280;70631;50.436;7.826;2023-06-22T02:09:02;99215.88;;;22.05;71.22
81155;BME280;70631;50.436;7.826;2023-06-22T02:11:29;99220.06;;;22.01;71.34
81155;BME280;70631;50.436;7.826;2023-06-22T02:13:57;99225.25;;;22.03;71.82
81155;BME280;70631;50.436;7.826;2023-06-22T02:16:22;99237.78;;;22.04;71.67
81155;BME280;70631;50.436;7.826;2023-06-22T02:18:51;99251.56;;;22.02;71.66
81155;BME280;70631;50.436;7.826;2023-06-22T02:21:17;99258.47;;;22.05;71.78
81155;BME280;70631;50.436;7.826;2023-06-22T02:23:43;99259.09;;;22.07;71.68
81155;BME280;70631;50.436;7.826;2023-06-22T02:26:08;99264.50;;;22.07;71.75
81155;BME280;70631;50.436;7.826;2023-06-22T02:28:33;99260.53;;;22.03;72.13
81155;BME280;70631;50.436;7.826;2023-06-22T02:30:59;99263.91;;;22.05;71.74
81155;BME280;70631;50.436;7.826;2023-06-22T02:33:24;99257.19;;;22.07;71.69
81155;BME280;70631;50.436;7.826;2023-06-22T02:35:49;99256.38;;;22.00;72.17
81155;BME280;70631;50.436;7.826;2023-06-22T02:38:15;99248.03;;;22.02;72.35
81155;BME280;70631;50.436;7.826;2023-06-22T02:40:40;99242.19;;;22.05;72.07
81155;BME280;70631;50.436;7.826;2023-06-22T02:43:05;99222.97;;;22.06;72.22
81155;BME280;70631;50.436;7.826;2023-06-22T02:45:31;99206.69;;;22.06;72.13
81155;BME280;70631;50.436;7.826;2023-06-22T02:47:56;99201.66;;;22.03;72.01
81155;BME280;70631;50.436;7.826;2023-06-22T02:50:21;99188.75;;;21.99;71.94
81155;BME280;70631;50.436;7.826;2023-06-22T02:52:47;99190.03;;;21.96;71.80
81155;BME280;70631;50.436;7.826;2023-06-22T02:55:12;99185.03;;;21.93;71.60
81155;BME280;70631;50.436;7.826;2023-06-22T02:57:37;99190.03;;;21.89;71.87
81155;BME280;70631;50.436;7.826;2023-06-22T03:00:03;99193.19;;;21.86;72.09
81155;BME280;70631;50.436;7.826;2023-06-22T03:02:41;99198.44;;;21.81;72.17
81155;BME280;70631;50.436;7.826;2023-06-22T03:05:07;99197.66;;;21.74;72.55
81155;BME280;70631;50.436;7.826;2023-06-22T03:07:39;99196.59;;;21.75;72.28
81155;BME280;70631;50.436;7.826;2023-06-22T03:10:06;99194.50;;;21.77;72.17
81155;BME280;70631;50.436;7.826;2023-06-22T03:12:31;99192.84;;;21.76;72.15
81155;BME280;70631;50.436;7.826;2023-06-22T03:14:56;99200.75;;;21.78;71.99
81155;BME280;70631;50.436;7.826;2023-06-22T03:17:21;99205.13;;;21.79;72.00
81155;BME280;70631;50.436;7.826;2023-06-22T03:19:47;99209.28;;;21.81;71.80
81155;BME280;70631;50.436;7.826;2023-06-22T03:22:12;99210.97;;;21.82;71.38
81155;BME280;70631;50.436;7.826;2023-06-22T03:24:37;99221.38;;;21.85;71.64
81155;BME280;70631;50.436;7.826;2023-06-22T03:27:04;99225.75;;;21.86;71.59
81155;BME280;70631;50.436;7.826;2023-06-22T03:29:30;99215.34;;;21.83;71.54
81155;BME280;70631;50.436;7.826;2023-06-22T03:31:56;99209.69;;;21.85;71.74
81155;BME280;70631;50.436;7.826;2023-06-22T03:34:21;99214.28;;;21.84;71.99
81155;BME280;70631;50.436;7.826;2023-06-22T03:36:46;99212.19;;;21.86;71.48
81155;BME280;70631;50.436;7.826;2023-06-22T03:39:11;99216.56;;;21.87;71.73
81155;BME280;70631;50.436;7.826;2023-06-22T03:41:37;99219.28;;;21.87;71.73
81155;BME280;70631;50.436;7.826;2023-06-22T03:44:02;99211.75;;;21.89;71.75
81155;BME280;70631;50.436;7.826;2023-06-22T03:46:27;99214.28;;;21.91;71.62
81155;BME280;70631;50.436;7.826;2023-06-22T03:48:53;99207.38;;;21.88;71.69
81155;BME280;70631;50.436;7.826;2023-06-22T03:51:18;99208.00;;;21.90;71.80
81155;BME280;70631;50.436;7.826;2023-06-22T03:53:43;99205.28;;;21.90;71.87
81155;BME280;70631;50.436;7.826;2023-06-22T03:56:09;99213.41;;;21.90;71.71
81155;BME280;70631;50.436;7.826;2023-06-22T03:58:34;99211.75;;;21.89;71.86
81155;BME280;70631;50.436;7.826;2023-06-22T04:01:01;99208.00;;;21.90;71.99
81155;BME280;70631;50.436;7.826;2023-06-22T04:03:26;99212.41;;;21.91;71.91
81155;BME280;70631;50.436;7.826;2023-06-22T04:05:52;99204.25;;;21.91;71.88
81155;BME280;70631;50.436;7.826;2023-06-22T04:08:17;99198.19;;;21.89;71.86
81155;BME280;70631;50.436;7.826;2023-06-22T04:10:43;99198.00;;;21.91;71.81
81155;BME280;70631;50.436;7.826;2023-06-22T04:13:08;99203.44;;;21.91;71.77
81155;BME280;70631;50.436;7.826;2023-06-22T04:15:34;99198.84;;;21.91;72.06
81155;BME280;70631;50.436;7.826;2023-06-22T04:17:59;99204.25;;;21.91;72.06
81155;BME280;70631;50.436;7.826;2023-06-22T04:20:24;99203.22;;;21.92;72.09
81155;BME280;70631;50.436;7.826;2023-06-22T04:22:53;99205.91;;;21.92;71.89
81155;BME280;70631;50.436;7.826;2023-06-22T04:25:19;99215.09;;;21.91;71.67
81155;BME280;70631;50.436;7.826;2023-06-22T04:27:45;99220.53;;;21.85;71.98
81155;BME280;70631;50.436;7.826;2023-06-22T04:30:10;99209.72;;;21.78;72.14
81155;BME280;70631;50.436;7.826;2023-06-22T04:32:37;99205.78;;;21.74;72.36
81155;BME280;70631;50.436;7.826;2023-06-22T04:35:03;99199.50;;;21.80;72.04
81155;BME280;70631;50.436;7.826;2023-06-22T04:37:30;99200.91;;;21.89;72.03
81155;BME280;70631;50.436;7.826;2023-06-22T04:39:56;99203.38;;;21.98;71.75
81155;BME280;70631;50.436;7.826;2023-06-22T04:42:21;99190.00;;;22.03;71.42
81155;BME280;70631;50.436;7.826;2023-06-22T04:44:46;99191.25;;;22.07;71.44
81155;BME280;70631;50.436;7.826;2023-06-22T04:47:11;99186.22;;;22.10;71.23
81155;BME280;70631;50.436;7.826;2023-06-22T04:49:37;99191.00;;;22.15;71.38
81155;BME280;70631;50.436;7.826;2023-06-22T04:52:04;99184.53;;;22.16;71.26
81155;BME280;70631;50.436;7.826;2023-06-22T04:54:30;99182.88;;;22.15;71.32
81155;BME280;70631;50.436;7.826;2023-06-22T04:57:00;99189.28;;;22.20;71.35
81155;BME280;70631;50.436;7.826;2023-06-22T04:59:27;99183.81;;;22.27;71.03
81155;BME280;70631;50.436;7.826;2023-06-22T05:02:00;99184.78;;;22.39;71.04
81155;BME280;70631;50.436;7.826;2023-06-22T05:04:27;99182.75;;;22.60;70.84
81155;BME280;70631;50.436;7.826;2023-06-22T05:06:54;99183.84;;;22.77;69.99
81155;BME280;70631;50.436;7.826;2023-06-22T05:09:20;99185.56;;;22.96;69.51
81155;BME280;70631;50.436;7.826;2023-06-22T05:11:45;99172.78;;;23.22;68.83
81155;BME280;70631;50.436;7.826;2023-06-22T05:14:11;99168.59;;;23.92;67.06
81155;BME280;70631;50.436;7.826;2023-06-22T05:16:37;99174.63;;;24.24;66.44
81155;BME280;70631;50.436;7.826;2023-06-22T05:19:02;99172.84;;;24.60;64.72
81155;BME280;70631;50.436;7.826;2023-06-22T05:21:29;99178.03;;;25.55;62.74
81155;BME280;70631;50.436;7.826;2023-06-22T05:23:56;99172.97;;;26.15;60.94
81155;BME280;70631;50.436;7.826;2023-06-22T05:26:25;99165.56;;;25.71;61.83
81155;BME280;70631;50.436;7.826;2023-06-22T05:28:51;99178.91;;;25.32;62.40
81155;BME280;70631;50.436;7.826;2023-06-22T05:31:17;99170.75;;;25.20;62.38
81155;BME280;70631;50.436;7.826;2023-06-22T05:33:45;99177.88;;;25.21;62.42
81155;BME280;70631;50.436;7.826;2023-06-22T05:36:10;99170.34;;;26.20;60.44
81155;BME280;70631;50.436;7.826;2023-06-22T05:38:38;99160.78;;;26.85;59.01
81155;BME280;70631;50.436;7.826;2023-06-22T05:41:04;99163.44;;;26.97;58.12
81155;BME280;70631;50.436;7.826;2023-06-22T05:43:29;99163.63;;;26.90;57.71
81155;BME280;70631;50.436;7.826;2023-06-22T05:45:55;99161.38;;;26.87;57.52
81155;BME280;70631;50.436;7.826;2023-06-22T05:48:20;99162.19;;;27.21;56.21
81155;BME280;70631;50.436;7.826;2023-06-22T05:50:46;99171.69;;;27.35;56.30
81155;BME280;70631;50.436;7.826;2023-06-22T05:53:11;99167.91;;;27.20;56.08
81155;BME280;70631;50.436;7.826;2023-06-22T05:55:37;99172.06;;;27.05;56.37
81155;BME280;70631;50.436;7.826;2023-06-22T05:58:02;99166.75;;;26.82;56.66
81155;BME280;70631;50.436;7.826;2023-06-22T06:00:28;99177.72;;;26.82;55.88
81155;BME280;70631;50.436;7.826;2023-06-22T06:02:54;99178.69;;;26.59;56.57
81155;BME280;70631;50.436;7.826;2023-06-22T06:05:19;99181.69;;;26.58;56.42
81155;BME280;70631;50.436;7.826;2023-06-22T06:07:45;99175.28;;;27.58;54.73
81155;BME280;70631;50.436;7.826;2023-06-22T06:10:11;99162.56;;;29.71;50.54
81155;BME280;70631;50.436;7.826;2023-06-22T06:12:36;99166.63;;;31.27;47.42
81155;BME280;70631;50.436;7.826;2023-06-22T06:15:02;99167.44;;;30.36;48.10
81155;BME280;70631;50.436;7.826;2023-06-22T06:17:28;99178.47;;;29.54;49.91
81155;BME280;70631;50.436;7.826;2023-06-22T06:19:53;99175.47;;;29.13;50.46
81155;BME280;70631;50.436;7.826;2023-06-22T06:22:19;99183.16;;;28.84;50.51
81155;BME280;70631;50.436;7.826;2023-06-22T06:24:46;99185.59;;;29.12;50.31
81155;BME280;70631;50.436;7.826;2023-06-22T06:27:12;99185.63;;;29.17;50.34
81155;BME280;70631;50.436;7.826;2023-06-22T06:29:38;99189.91;;;28.98;50.61
81155;BME280;70631;50.436;7.826;2023-06-22T06:32:03;99175.03;;;28.89;50.43
81155;BME280;70631;50.436;7.826;2023-06-22T06:34:28;99172.53;;;28.87;50.20
81155;BME280;70631;50.436;7.826;2023-06-22T06:36:54;99180.72;;;30.80;47.16
81155;BME280;70631;50.436;7.826;2023-06-22T06:39:19;99171.75;;;32.92;42.88
81155;BME280;70631;50.436;7.826;2023-06-22T06:41:45;99178.00;;;34.41;40.65
81155;BME280;70631;50.436;7.826;2023-06-22T06:44:11;99168.88;;;35.66;38.66
81155;BME280;70631;50.436;7.826;2023-06-22T06:46:36;99154.94;;;36.65;36.68
81155;BME280;70631;50.436;7.826;2023-06-22T06:49:01;99163.59;;;37.40;34.88
81155;BME280;70631;50.436;7.826;2023-06-22T06:51:27;99161.53;;;38.19;33.54
81155;BME280;70631;50.436;7.826;2023-06-22T06:53:52;99165.72;;;38.95;32.26
81155;BME280;70631;50.436;7.826;2023-06-22T06:56:17;99160.22;;;38.51;32.44
81155;BME280;70631;50.436;7.826;2023-06-22T06:58:43;99165.19;;;39.19;31.33
81155;BME280;70631;50.436;7.826;2023-06-22T07:01:10;99159.91;;;36.91;34.29
81155;BME280;70631;50.436;7.826;2023-06-22T07:03:35;99153.97;;;35.48;36.06
81155;BME280;70631;50.436;7.826;2023-06-22T07:06:00;99155.94;;;34.55;38.15
81155;BME280;70631;50.436;7.826;2023-06-22T07:08:26;99153.53;;;34.11;38.36
81155;BME280;70631;50.436;7.826;2023-06-22T07:10:52;99158.25;;;33.67;39.71
81155;BME280;70631;50.436;7.826;2023-06-22T07:13:17;99158.88;;;32.83;41.10
81155;BME280;70631;50.436;7.826;2023-06-22T07:15:43;99159.78;;;32.39;41.95
81155;BME280;70631;50.436;7.826;2023-06-22T07:18:08;99158.72;;;32.35;42.24
81155;BME280;70631;50.436;7.826;2023-06-22T07:20:33;99151.94;;;32.12;43.10
81155;BME280;70631;50.436;7.826;2023-06-22T07:22:59;99165.56;;;31.88;43.35
81155;BME280;70631;50.436;7.826;2023-06-22T07:25:24;99152.34;;;31.85;43.94
81155;BME280;70631;50.436;7.826;2023-06-22T07:28:07;99162.91;;;31.68;44.43
81155;BME280;70631;50.436;7.826;2023-06-22T07:30:33;99151.97;;;31.42;44.89
81155;BME280;70631;50.436;7.826;2023-06-22T07:32:59;99150.06;;;31.38;45.31
81155;BME280;70631;50.436;7.826;2023-06-22T07:35:28;99147.84;;;32.04;43.94
81155;BME280;70631;50.436;7.826;2023-06-22T07:37:53;99144.19;;;33.88;41.10
81155;BME280;70631;50.436;7.826;2023-06-22T07:40:18;99136.22;;;35.35;38.41
81155;BME280;70631;50.436;7.826;2023-06-22T07:42:44;99130.66;;;36.93;35.73
81155;BME280;70631;50.436;7.826;2023-06-22T07:45:09;99116.88;;;37.19;35.14
81155;BME280;70631;50.436;7.826;2023-06-22T07:47:34;99125.03;;;38.21;33.26
81155;BME280;70631;50.436;7.826;2023-06-22T07:50:00;99118.47;;;38.26;32.88
81155;BME280;70631;50.436;7.826;2023-06-22T07:52:27;99136.69;;;37.66;33.24
81155;BME280;70631;50.436;7.826;2023-06-22T07:54:52;99117.97;;;38.41;32.43
81155;BME280;70631;50.436;7.826;2023-06-22T07:57:18;99119.47;;;39.11;31.33
81155;BME280;70631;50.436;7.826;2023-06-22T07:59:43;99111.47;;;39.68;30.14
81155;BME280;70631;50.436;7.826;2023-06-22T08:02:09;99109.88;;;39.88;30.36
81155;BME280;70631;50.436;7.826;2023-06-22T08:04:34;99113.44;;;40.18;30.18
81155;BME280;70631;50.436;7.826;2023-06-22T08:07:00;99101.19;;;40.65;28.85
81155;BME280;70631;50.436;7.826;2023-06-22T08:09:28;99091.19;;;40.64;28.78
81155;BME280;70631;50.436;7.826;2023-06-22T08:11:54;99090.72;;;40.74;28.62
81155;BME280;70631;50.436;7.826;2023-06-22T08:14:21;99078.38;;;40.63;29.21
81155;BME280;70631;50.436;7.826;2023-06-22T08:16:46;99076.41;;;40.75;29.11
81155;BME280;70631;50.436;7.826;2023-06-22T08:19:12;99067.25;;;40.87;28.26
81155;BME280;70631;50.436;7.826;2023-06-22T08:21:37;99063.78;;;41.02;28.27
81155;BME280;70631;50.436;7.826;2023-06-22T08:24:03;99056.22;;;41.39;27.74
81155;BME280;70631;50.436;7.826;2023-06-22T08:26:28;99059.13;;;42.07;26.68
81155;BME280;70631;50.436;7.826;2023-06-22T08:28:53;99054.13;;;42.01;27.09
81155;BME280;70631;50.436;7.826;2023-06-22T08:31:19;99055.16;;;40.50;28.13
81155;BME280;70631;50.436;7.826;2023-06-22T08:33:44;99057.72;;;39.59;29.58
81155;BME280;70631;50.436;7.826;2023-06-22T08:36:13;99063.97;;;38.80;31.18
81155;BME280;70631;50.436;7.826;2023-06-22T08:38:38;99049.88;;;38.21;32.04
81155;BME280;70631;50.436;7.826;2023-06-22T08:41:04;99052.00;;;38.24;31.99
81155;BME280;70631;50.436;7.826;2023-06-22T08:43:29;99056.63;;;38.75;31.18
81155;BME280;70631;50.436;7.826;2023-06-22T08:45:54;99044.97;;;39.50;30.75
81155;BME280;70631;50.436;7.826;2023-06-22T08:48:19;99033.22;;;39.65;30.16
81155;BME280;70631;50.436;7.826;2023-06-22T08:50:45;99041.88;;;39.51;30.57
81155;BME280;70631;50.436;7.826;2023-06-22T08:53:10;99046.06;;;39.07;30.66
81155;BME280;70631;50.436;7.826;2023-06-22T08:55:35;99053.28;;;37.92;31.65
81155;BME280;70631;50.436;7.826;2023-06-22T08:58:01;99045.19;;;36.90;32.68
81155;BME280;70631;50.436;7.826;2023-06-22T09:00:26;99047.84;;;36.73;33.24
81155;BME280;70631;50.436;7.826;2023-06-22T09:02:52;99045.72;;;36.70;34.07
81155;BME280;70631;50.436;7.826;2023-06-22T09:05:17;99032.16;;;36.68;34.37
81155;BME280;70631;50.436;7.826;2023-06-22T09:07:43;99022.31;;;37.33;33.26
81155;BME280;70631;50.436;7.826;2023-06-22T09:10:08;99011.34;;;37.71;32.22
81155;BME280;70631;50.436;7.826;2023-06-22T09:12:34;99025.13;;;38.11;32.02
81155;BME280;70631;50.436;7.826;2023-06-22T09:15:00;99032.28;;;38.46;31.13
81155;BME280;70631;50.436;7.826;2023-06-22T09:17:26;99015.28;;;38.13;32.04
81155;BME280;70631;50.436;7.826;2023-06-22T09:19:52;99004.84;;;38.02;31.97
81155;BME280;70631;50.436;7.826;2023-06-22T09:22:18;98986.50;;;37.92;32.27
81155;BME280;70631;50.436;7.826;2023-06-22T09:24:43;98990.78;;;37.81;32.52
81155;BME280;70631;50.436;7.826;2023-06-22T09:27:08;98988.41;;;38.35;32.18
81155;BME280;70631;50.436;7.826;2023-06-22T09:29:34;98975.25;;;38.52;31.49
81155;BME280;70631;50.436;7.826;2023-06-22T09:32:00;98969.28;;;38.25;31.83
81155;BME280;70631;50.436;7.826;2023-06-22T09:34:25;98973.81;;;38.38;31.89
81155;BME280;70631;50.436;7.826;2023-06-22T09:36:51;98978.53;;;38.63;31.22
81155;BME280;70631;50.436;7.826;2023-06-22T09:39:18;98971.81;;;38.64;31.51
81155;BME280;70631;50.436;7.826;2023-06-22T09:41:43;98960.50;;;37.88;32.10
81155;BME280;70631;50.436;7.826;2023-06-22T09:44:08;98965.03;;;38.10;31.84
81155;BME280;70631;50.436;7.826;2023-06-22T09:46:33;98950.25;;;38.44;31.87
81155;BME280;70631;50.436;7.826;2023-06-22T09:48:59;98941.50;;;38.63;31.45
81155;BME280;70631;50.436;7.826;2023-06-22T09:51:24;98933.63;;;38.56;31.37
81155;BME280;70631;50.436;7.826;2023-06-22T09:53:50;98930.91;;;38.39;31.65
81155;BME280;70631;50.436;7.826;2023-06-22T09:56:15;98938.25;;;37.53;32.95
81155;BME280;70631;50.436;7.826;2023-06-22T09:58:42;98928.31;;;36.38;34.99
81155;BME280;70631;50.436;7.826;2023-06-22T10:01:07;98921.38;;;37.15;33.74
81155;BME280;70631;50.436;7.826;2023-06-22T10:03:33;98934.41;;;35.96;35.95
81155;BME280;70631;50.436;7.826;2023-06-22T10:05:58;98936.75;;;34.80;37.90
81155;BME280;70631;50.436;7.826;2023-06-22T10:08:23;98924.78;;;33.79;39.57
81155;BME280;70631;50.436;7.826;2023-06-22T10:10:48;98917.28;;;33.65;39.77
81155;BME280;70631;50.436;7.826;2023-06-22T10:13:14;98918.13;;;33.66;39.35
81155;BME280;70631;50.436;7.826;2023-06-22T10:15:40;98919.97;;;33.14;40.83
81155;BME280;70631;50.436;7.826;2023-06-22T10:18:05;98909.88;;;32.62;41.99
81155;BME280;70631;50.436;7.826;2023-06-22T10:20:31;98912.59;;;32.43;42.39
81155;BME280;70631;50.436;7.826;2023-06-22T10:22:56;98902.25;;;32.30;42.94
81155;BME280;70631;50.436;7.826;2023-06-22T10:25:22;98903.53;;;32.08;43.57
81155;BME280;70631;50.436;7.826;2023-06-22T10:27:47;98882.97;;;32.01;43.63
81155;BME280;70631;50.436;7.826;2023-06-22T10:30:13;98884.72;;;31.91;43.73
81155;BME280;70631;50.436;7.826;2023-06-22T10:32:39;98884.56;;;31.78;44.01
81155;BME280;70631;50.436;7.826;2023-06-22T10:35:05;98917.13;;;31.71;44.17
81155;BME280;70631;50.436;7.826;2023-06-22T10:37:31;98956.38;;;31.52;45.01
81155;BME280;70631;50.436;7.826;2023-06-22T10:39:56;98983.41;;;31.45;45.20
81155;BME280;70631;50.436;7.826;2023-06-22T10:42:21;98982.06;;;31.38;44.82
81155;BME280;70631;50.436;7.826;2023-06-22T10:44:47;98975.13;;;30.91;48.38
81155;BME280;70631;50.436;7.826;2023-06-22T10:47:12;98974.44;;;30.29;51.14
81155;BME280;70631;50.436;7.826;2023-06-22T10:49:38;98979.66;;;30.36;53.15
81155;BME280;70631;50.436;7.826;2023-06-22T10:52:05;98984.03;;;30.52;53.10
81155;BME280;70631;50.436;7.826;2023-06-22T10:54:32;98980.97;;;30.74;51.00
81155;BME280;70631;50.436;7.826;2023-06-22T10:56:58;98966.19;;;31.19;50.01
81155;BME280;70631;50.436;7.826;2023-06-22T10:59:24;98939.50;;;32.75;47.74
81155;BME280;70631;50.436;7.826;2023-06-22T11:01:51;98925.81;;;34.01;44.18
81155;BME280;70631;50.436;7.826;2023-06-22T11:04:16;98898.94;;;34.76;40.75
81155;BME280;70631;50.436;7.826;2023-06-22T11:06:42;98889.03;;;35.11;40.94
81155;BME280;70631;50.436;7.826;2023-06-22T11:09:08;98878.19;;;35.81;39.21
81155;BME280;70631;50.436;7.826;2023-06-22T11:11:33;98875.41;;;36.35;37.17
81155;BME280;70631;50.436;7.826;2023-06-22T11:13:58;98871.94;;;36.29;36.72
81155;BME280;70631;50.436;7.826;2023-06-22T11:16:23;98873.59;;;36.79;35.30
81155;BME280;70631;50.436;7.826;2023-06-22T11:18:49;98868.94;;;37.31;33.53
81155;BME280;70631;50.436;7.826;2023-06-22T11:21:14;98876.75;;;37.55;33.35
81155;BME280;70631;50.436;7.826;2023-06-22T11:23:39;98879.03;;;37.61;33.13
81155;BME280;70631;50.436;7.826;2023-06-22T11:26:04;98877.41;;;37.78;32.92
81155;BME280;70631;50.436;7.826;2023-06-22T11:28:30;98868.69;;;37.88;32.74
81155;BME280;70631;50.436;7.826;2023-06-22T11:30:55;98875.13;;;37.45;32.28
81155;BME280;70631;50.436;7.826;2023-06-22T11:33:20;98880.16;;;36.91;33.16
81155;BME280;70631;50.436;7.826;2023-06-22T11:35:45;98887.28;;;36.66;33.64
81155;BME280;70631;50.436;7.826;2023-06-22T11:38:11;98881.13;;;36.38;33.93
81155;BME280;70631;50.436;7.826;2023-06-22T11:40:36;98883.25;;;36.02;34.50
81155;BME280;70631;50.436;7.826;2023-06-22T11:43:01;98872.66;;;35.81;34.04
81155;BME280;70631;50.436;7.826;2023-06-22T11:45:27;98874.53;;;35.72;34.66
81155;BME280;70631;50.436;7.826;2023-06-22T11:47:52;98873.72;;;35.49;34.27
81155;BME280;70631;50.436;7.826;2023-06-22T11:50:18;98873.50;;;35.37;35.15
81155;BME280;70631;50.436;7.826;2023-06-22T11:52:43;98858.84;;;35.23;34.98
81155;BME280;70631;50.436;7.826;2023-06-22T11:55:08;98849.44;;;35.10;36.12
81155;BME280;70631;50.436;7.826;2023-06-22T11:57:36;98859.63;;;35.01;36.60
81155;BME280;70631;50.436;7.826;2023-06-22T12:00:02;98851.13;;;34.98;36.56
81155;BME280;70631;50.436;7.826;2023-06-22T12:02:31;98840.94;;;35.07;36.39
81155;BME280;70631;50.436;7.826;2023-06-22T12:04:56;98830.03;;;35.10;36.11
81155;BME280;70631;50.436;7.826;2023-06-22T12:07:23;98833.72;;;35.19;36.29
81155;BME280;70631;50.436;7.826;2023-06-22T12:09:48;98821.25;;;35.31;36.26
81155;BME280;70631;50.436;7.826;2023-06-22T12:12:13;98809.50;;;35.47;36.27
81155;BME280;70631;50.436;7.826;2023-06-22T12:14:39;98799.03;;;35.75;35.67
81155;BME280;70631;50.436;7.826;2023-06-22T12:17:04;98801.50;;;36.08;34.60
81155;BME280;70631;50.436;7.826;2023-06-22T12:19:29;98791.28;;;36.26;34.39
81155;BME280;70631;50.436;7.826;2023-06-22T12:21:54;98788.44;;;36.08;35.49
81155;BME280;70631;50.436;7.826;2023-06-22T12:24:20;98781.75;;;36.01;34.61
81155;BME280;70631;50.436;7.826;2023-06-22T12:26:45;98787.22;;;35.84;34.77
81155;BME280;70631;50.436;7.826;2023-06-22T12:29:10;98782.00;;;35.60;35.12
81155;BME280;70631;50.436;7.826;2023-06-22T12:31:36;98770.53;;;35.30;36.11
81155;BME280;70631;50.436;7.826;2023-06-22T12:34:04;98764.31;;;35.25;36.45
81155;BME280;70631;50.436;7.826;2023-06-22T12:36:29;98771.13;;;35.18;35.98
81155;BME280;70631;50.436;7.826;2023-06-22T12:38:54;98763.19;;;35.03;36.09
81155;BME280;70631;50.436;7.826;2023-06-22T12:41:19;98764.47;;;34.83;36.88
81155;BME280;70631;50.436;7.826;2023-06-22T12:43:46;98760.38;;;34.81;36.56
81155;BME280;70631;50.436;7.826;2023-06-22T12:46:11;98752.44;;;34.66;36.87
81155;BME280;70631;50.436;7.826;2023-06-22T12:48:37;98760.34;;;34.72;37.23
81155;BME280;70631;50.436;7.826;2023-06-22T12:51:07;98755.25;;;34.88;36.65
81155;BME280;70631;50.436;7.826;2023-06-22T12:53:32;98750.66;;;35.06;36.47
81155;BME280;70631;50.436;7.826;2023-06-22T12:55:57;98745.13;;;35.06;36.76
81155;BME280;70631;50.436;7.826;2023-06-22T12:58:23;98731.72;;;35.21;37.00